sensor_id;sensor_type;location;lat;lon;timestamp;temperature;humidity
1976;DHT22;988;48.016;7.800;2023-09-07T00:00:41;18.80;99.90
1976;DHT22;988;48.016;7.800;2023-09-07T00:03:07;18.90;99.90
1976;DHT22;988;48.016;7.800;2023-09-07T00:05:32;19.10;99.90
1976;DHT22;988;48.016;7.800;2023-09-07T00:07:58;19.30;99.90
1976;DHT22;988;48.016;7.800;2023-09-07T00:10:23;19.00;99.90
1976;DHT22;988;48.016;7.800;2023-09-07T00:12:50;19.30;99.90
1976;DHT22;988;48.016;7.800;2023-09-07T00:15:16;19.10;99.90
1976;DHT22;988;48.016;7.800;2023-09-07T00:17:44;19.40;99.90
1976;DHT22;988;48.016;7.800;2023-09-07T00:20:10;20.40;99.90
1976;DHT22;988;48.016;7.800;2023-09-07T00:22:36;19.80;99.90
1976;DHT22;988;48.016;7.800;2023-09-07T00:25:02;19.90;99.90
1976;DHT22;988;48.016;7.800;2023-09-07T00:27:29;20.00;99.90
1976;DHT22;988;48.016;7.800;2023-09-07T00:29:54;19.90;99.90
1976;DHT22;988;48.016;7.800;2023-09-07T00:32:20;19.70;99.90
1976;DHT22;988;48.016;7.800;2023-09-07T00:34:45;19.80;99.90
1976;DHT22;988;48.016;7.800;2023-09-07T00:37:11;19.70;99.90
1976;DHT22;988;48.016;7.800;2023-09-07T00:39:37;20.10;99.90
1976;DHT22;988;48.016;7.800;2023-09-07T00:42:04;20.50;99.90
1976;DHT22;988;48.016;7.800;2023-09-07T00:44:30;19.80;99.90
1976;DHT22;988;48.016;7.800;2023-09-07T00:46:56;19.90;99.90
1976;DHT22;988;48.016;7.800;2023-09-07T00:49:22;20.10;99.90
1976;DHT22;988;48.016;7.800;2023-09-07T00:51:47;20.00;99.90
1976;DHT22;988;48.016;7.800;2023-09-07T00:54:13;20.20;99.90
1976;DHT22;988;48.016;7.800;2023-09-07T00:56:38;19.90;99.90
1976;DHT22;988;48.016;7.800;2023-09-07T00:59:04;20.00;99.90
1976;DHT22;988;48.016;7.800;2023-09-07T01:01:31;20.10;99.90
1976;DHT22;988;48.016;7.800;2023-09-07T01:03:56;19.90;99.90
1976;DHT22;988;48.016;7.800;2023-09-07T01:06:22;20.50;99.90
1976;DHT22;988;48.016;7.800;2023-09-07T01:08:51;19.70;99.90
1976;DHT22;988;48.016;7.800;2023-09-07T01:11:21;19.90;99.90
1976;DHT22;988;48.016;7.800;2023-09-07T01:13:49;19.80;99.90
1976;DHT22;988;48.016;7.800;2023-09-07T01:16:15;20.40;99.90
1976;DHT22;988;48.016;7.800;2023-09-07T01:18:41;20.10;99.90
1976;DHT22;988;48.016;7.800;2023-09-07T01:21:07;20.60;99.90
1976;DHT22;988;48.016;7.800;2023-09-07T01:23:36;19.90;99.90
1976;DHT22;988;48.016;7.800;2023-09-07T01:26:02;19.70;99.90
1976;DHT22;988;48.016;7.800;2023-09-07T01:28:28;19.90;99.90
1976;DHT22;988;48.016;7.800;2023-09-07T01:30:54;20.30;99.90
1976;DHT22;988;48.016;7.800;2023-09-07T01:33:19;20.10;99.90
1976;DHT22;988;48.016;7.800;2023-09-07T01:35:44;20.10;99.90
1976;DHT22;988;48.016;7.800;2023-09-07T01:38:10;19.70;99.90
1976;DHT22;988;48.016;7.800;2023-09-07T01:40:36;19.70;99.90
1976;DHT22;988;48.016;7.800;2023-09-07T01:43:01;19.80;99.90
1976;DHT22;988;48.016;7.800;2023-09-07T01:45:26;19.40;99.90
1976;DHT22;988;48.016;7.800;2023-09-07T01:47:52;19.30;99.90
1976;DHT22;988;48.016;7.800;2023-09-07T01:50:18;19.80;99.90
1976;DHT22;988;48.016;7.800;2023-09-07T01:52:45;19.60;99.90
1976;DHT22;988;48.016;7.800;2023-09-07T01:55:10;20.00;99.90
1976;DHT22;988;48.016;7.800;2023-09-07T01:57:36;19.40;99.90
1976;DHT22;988;48.016;7.800;2023-09-07T02:00:01;18.90;99.90
1976;DHT22;988;48.016;7.800;2023-09-07T02:02:29;19.00;99.90
1976;DHT22;988;48.016;7.800;2023-09-07T02:04:55;18.50;99.90
1976;DHT22;988;48.016;7.800;2023-09-07T02:07:20;19.30;99.90
1976;DHT22;988;48.016;7.800;2023-09-07T02:09:46;18.70;99.90
1976;DHT22;988;48.016;7.800;2023-09-07T02:12:11;18.90;99.90
1976;DHT22;988;48.016;7.800;2023-09-07T02:14:37;19.20;99.90
1976;DHT22;988;48.016;7.800;2023-09-07T02:17:03;19.40;99.90
1976;DHT22;988;48.016;7.800;2023-09-07T02:19:28;18.70;99.90
1976;DHT22;988;48.016;7.800;2023-09-07T02:21:54;19.20;99.90
1976;DHT22;988;48.016;7.800;2023-09-07T02:24:19;18.80;99.90
1976;DHT22;988;48.016;7.800;2023-09-07T02:26:45;19.20;99.90
1976;DHT22;988;48.016;7.800;2023-09-07T02:29:11;19.50;99.90
1976;DHT22;988;48.016;7.800;2023-09-07T02:31:37;19.40;99.90
1976;DHT22;988;48.016;7.800;2023-09-07T02:34:02;19.40;99.90
1976;DHT22;988;48.016;7.800;2023-09-07T02:36:28;18.10;99.90
1976;DHT22;988;48.016;7.800;2023-09-07T02:38:54;18.80;99.90
1976;DHT22;988;48.016;7.800;2023-09-07T02:41:19;18.20;99.90
1976;DHT22;988;48.016;7.800;2023-09-07T02:43:45;18.90;99.90
1976;DHT22;988;48.016;7.800;2023-09-07T02:46:10;19.30;99.90
1976;DHT22;988;48.016;7.800;2023-09-07T02:48:36;19.00;99.90
1976;DHT22;988;48.016;7.800;2023-09-07T02:51:02;18.40;99.90
1976;DHT22;988;48.016;7.800;2023-09-07T02:53:28;18.20;99.90
1976;DHT22;988;48.016;7.800;2023-09-07T02:55:53;18.90;99.90
1976;DHT22;988;48.016;7.800;2023-09-07T02:58:19;18.90;99.90
1976;DHT22;988;48.016;7.800;2023-09-07T03:00:44;18.10;99.90
1976;DHT22;988;48.016;7.800;2023-09-07T03:03:11;19.00;99.90
1976;DHT22;988;48.016;7.800;2023-09-07T03:05:38;18.60;99.90
1976;DHT22;988;48.016;7.800;2023-09-07T03:08:04;18.90;99.90
1976;DHT22;988;48.016;7.800;2023-09-07T03:10:29;18.50;99.90
1976;DHT22;988;48.016;7.800;2023-09-07T03:12:55;18.70;99.90
1976;DHT22;988;48.016;7.800;2023-09-07T03:15:20;18.30;99.90
1976;DHT22;988;48.016;7.800;2023-09-07T03:17:46;18.60;99.90
1976;DHT22;988;48.016;7.800;2023-09-07T03:20:11;18.80;99.90
1976;DHT22;988;48.016;7.800;2023-09-07T03:22:42;18.50;99.90
1976;DHT22;988;48.016;7.800;2023-09-07T03:25:08;18.50;99.90
1976;DHT22;988;48.016;7.800;2023-09-07T03:27:35;18.20;99.90
1976;DHT22;988;48.016;7.800;2023-09-07T03:30:01;18.20;99.90
1976;DHT22;988;48.016;7.800;2023-09-07T03:32:26;18.40;99.90
1976;DHT22;988;48.016;7.800;2023-09-07T03:34:57;18.70;99.90
1976;DHT22;988;48.016;7.800;2023-09-07T03:37:22;18.50;99.90
1976;DHT22;988;48.016;7.800;2023-09-07T03:39:48;18.00;99.90
1976;DHT22;988;48.016;7.800;2023-09-07T03:42:13;18.10;99.90
1976;DHT22;988;48.016;7.800;2023-09-07T03:44:39;17.80;99.90
1976;DHT22;988;48.016;7.800;2023-09-07T03:47:05;18.00;99.90
1976;DHT22;988;48.016;7.800;2023-09-07T03:49:30;17.70;99.90
1976;DHT22;988;48.016;7.800;2023-09-07T03:51:56;17.90;99.90
1976;DHT22;988;48.016;7.800;2023-09-07T03:54:21;18.00;99.90
1976;DHT22;988;48.016;7.800;2023-09-07T03:56:47;17.70;99.90
1976;DHT22;988;48.016;7.800;2023-09-07T03:59:12;17.40;99.90
1976;DHT22;988;48.016;7.800;2023-09-07T04:01:38;17.60;99.90
1976;DHT22;988;48.016;7.800;2023-09-07T04:04:03;17.40;99.90
1976;DHT22;988;48.016;7.800;2023-09-07T04:06:28;16.70;99.90
1976;DHT22;988;48.016;7.800;2023-09-07T04:08:54;17.50;99.90
1976;DHT22;988;48.016;7.800;2023-09-07T04:11:19;17.70;99.90
1976;DHT22;988;48.016;7.800;2023-09-07T04:13:45;17.60;99.90
1976;DHT22;988;48.016;7.800;2023-09-07T04:16:10;17.80;99.90
1976;DHT22;988;48.016;7.800;2023-09-07T04:18:36;17.40;99.90
1976;DHT22;988;48.016;7.800;2023-09-07T04:21:05;17.80;99.90
1976;DHT22;988;48.016;7.800;2023-09-07T04:23:31;17.60;99.90
1976;DHT22;988;48.016;7.800;2023-09-07T04:26:03;17.90;99.90
1976;DHT22;988;48.016;7.800;2023-09-07T04:28:29;17.10;99.90
1976;DHT22;988;48.016;7.800;2023-09-07T04:30:54;18.10;99.90
1976;DHT22;988;48.016;7.800;2023-09-07T04:33:20;17.80;99.90
1976;DHT22;988;48.016;7.800;2023-09-07T04:35:45;17.90;99.90
1976;DHT22;988;48.016;7.800;2023-09-07T04:38:11;18.00;99.90
1976;DHT22;988;48.016;7.800;2023-09-07T04:40:36;17.50;99.90
1976;DHT22;988;48.016;7.800;2023-09-07T04:43:02;17.40;99.90
1976;DHT22;988;48.016;7.800;2023-09-07T04:45:27;17.30;99.90
1976;DHT22;988;48.016;7.800;2023-09-07T04:47:53;18.00;99.90
1976;DHT22;988;48.016;7.800;2023-09-07T04:50:18;17.80;99.90
1976;DHT22;988;48.016;7.800;2023-09-07T04:52:43;17.60;99.90
1976;DHT22;988;48.016;7.800;2023-09-07T04:55:09;17.90;99.90
1976;DHT22;988;48.016;7.800;2023-09-07T04:57:36;17.40;99.90
1976;DHT22;988;48.016;7.800;2023-09-07T05:00:01;17.90;99.90
1976;DHT22;988;48.016;7.800;2023-09-07T05:02:28;17.60;99.90
1976;DHT22;988;48.016;7.800;2023-09-07T05:04:55;18.40;99.90
1976;DHT22;988;48.016;7.800;2023-09-07T05:07:20;18.30;99.90
1976;DHT22;988;48.016;7.800;2023-09-07T05:09:46;18.30;99.90
1976;DHT22;988;48.016;7.800;2023-09-07T05:12:12;18.30;99.90
1976;DHT22;988;48.016;7.800;2023-09-07T05:14:39;18.60;99.90
1976;DHT22;988;48.016;7.800;2023-09-07T05:17:05;18.40;99.90
1976;DHT22;988;48.016;7.800;2023-09-07T05:19:30;18.90;99.90
1976;DHT22;988;48.016;7.800;2023-09-07T05:21:56;18.30;99.90
1976;DHT22;988;48.016;7.800;2023-09-07T05:24:21;18.90;99.90
1976;DHT22;988;48.016;7.800;2023-09-07T05:26:47;18.70;99.90
1976;DHT22;988;48.016;7.800;2023-09-07T05:29:12;18.70;99.90
1976;DHT22;988;48.016;7.800;2023-09-07T05:31:38;18.30;99.90
1976;DHT22;988;48.016;7.800;2023-09-07T05:34:04;18.70;99.90
1976;DHT22;988;48.016;7.800;2023-09-07T05:36:29;18.30;99.90
1976;DHT22;988;48.016;7.800;2023-09-07T05:38:55;18.70;99.90
1976;DHT22;988;48.016;7.800;2023-09-07T05:41:20;18.90;99.90
1976;DHT22;988;48.016;7.800;2023-09-07T05:43:46;18.50;99.90
1976;DHT22;988;48.016;7.800;2023-09-07T05:46:11;18.60;99.90
1976;DHT22;988;48.016;7.800;2023-09-07T05:48:37;18.90;99.90
1976;DHT22;988;48.016;7.800;2023-09-07T05:51:02;18.30;99.90
1976;DHT22;988;48.016;7.800;2023-09-07T05:53:29;18.40;99.90
1976;DHT22;988;48.016;7.800;2023-09-07T05:55:54;19.00;99.90
1976;DHT22;988;48.016;7.800;2023-09-07T05:58:19;19.30;99.90
1976;DHT22;988;48.016;7.800;2023-09-07T06:00:45;18.90;99.90
1976;DHT22;988;48.016;7.800;2023-09-07T06:03:11;19.10;99.90
1976;DHT22;988;48.016;7.800;2023-09-07T06:05:36;18.90;99.90
1976;DHT22;988;48.016;7.800;2023-09-07T06:08:04;19.50;99.90
1976;DHT22;988;48.016;7.800;2023-09-07T06:10:29;19.00;99.90
1976;DHT22;988;48.016;7.800;2023-09-07T06:12:55;19.20;99.90
1976;DHT22;988;48.016;7.800;2023-09-07T06:15:21;19.50;99.90
1976;DHT22;988;48.016;7.800;2023-09-07T06:17:46;19.50;99.90
1976;DHT22;988;48.016;7.800;2023-09-07T06:20:12;19.80;99.90
1976;DHT22;988;48.016;7.800;2023-09-07T06:22:38;19.60;99.90
1976;DHT22;988;48.016;7.800;2023-09-07T06:25:03;20.30;99.90
1976;DHT22;988;48.016;7.800;2023-09-07T06:27:29;19.60;99.90
1976;DHT22;988;48.016;7.800;2023-09-07T06:29:54;19.70;99.90
1976;DHT22;988;48.016;7.800;2023-09-07T06:32:20;20.10;99.90
1976;DHT22;988;48.016;7.800;2023-09-07T06:34:45;20.30;99.90
1976;DHT22;988;48.016;7.800;2023-09-07T06:37:11;20.30;99.90
1976;DHT22;988;48.016;7.800;2023-09-07T06:39:37;20.30;99.90
1976;DHT22;988;48.016;7.800;2023-09-07T06:42:02;20.20;99.90
1976;DHT22;988;48.016;7.800;2023-09-07T06:44:29;20.50;99.90
1976;DHT22;988;48.016;7.800;2023-09-07T06:46:54;21.40;99.90
1976;DHT22;988;48.016;7.800;2023-09-07T06:49:19;21.60;99.90
1976;DHT22;988;48.016;7.800;2023-09-07T06:51:45;21.00;99.90
1976;DHT22;988;48.016;7.800;2023-09-07T06:54:11;21.90;99.90
1976;DHT22;988;48.016;7.800;2023-09-07T06:56:36;21.80;99.90
1976;DHT22;988;48.016;7.800;2023-09-07T06:59:01;21.80;99.90
1976;DHT22;988;48.016;7.800;2023-09-07T07:01:27;21.70;99.90
1976;DHT22;988;48.016;7.800;2023-09-07T07:03:52;21.60;99.90
1976;DHT22;988;48.016;7.800;2023-09-07T07:06:19;21.30;99.90
1976;DHT22;988;48.016;7.800;2023-09-07T07:08:44;21.70;99.90
1976;DHT22;988;48.016;7.800;2023-09-07T07:11:10;21.60;99.90
1976;DHT22;988;48.016;7.800;2023-09-07T07:13:35;21.80;99.90
1976;DHT22;988;48.016;7.800;2023-09-07T07:16:02;21.90;99.90
1976;DHT22;988;48.016;7.800;2023-09-07T07:18:29;22.10;99.90
1976;DHT22;988;48.016;7.800;2023-09-07T07:20:54;22.20;99.90
1976;DHT22;988;48.016;7.800;2023-09-07T07:23:20;22.20;99.90
1976;DHT22;988;48.016;7.800;2023-09-07T07:25:45;22.20;99.90
1976;DHT22;988;48.016;7.800;2023-09-07T07:28:11;22.00;99.90
1976;DHT22;988;48.016;7.800;2023-09-07T07:30:37;22.20;99.90
1976;DHT22;988;48.016;7.800;2023-09-07T07:33:03;22.10;99.90
1976;DHT22;988;48.016;7.800;2023-09-07T07:35:29;22.10;99.90
1976;DHT22;988;48.016;7.800;2023-09-07T07:37:55;22.70;99.90
1976;DHT22;988;48.016;7.800;2023-09-07T07:40:20;22.60;99.90
1976;DHT22;988;48.016;7.800;2023-09-07T07:42:46;22.20;99.90
1976;DHT22;988;48.016;7.800;2023-09-07T07:45:12;23.80;99.90
1976;DHT22;988;48.016;7.800;2023-09-07T07:47:38;26.40;99.90
1976;DHT22;988;48.016;7.800;2023-09-07T07:50:06;29.50;99.90
1976;DHT22;988;48.016;7.800;2023-09-07T07:52:31;29.30;99.90
1976;DHT22;988;48.016;7.800;2023-09-07T07:54:59;32.60;99.90
1976;DHT22;988;48.016;7.800;2023-09-07T07:57:25;32.50;99.90
1976;DHT22;988;48.016;7.800;2023-09-07T07:59:50;30.60;99.90
1976;DHT22;988;48.016;7.800;2023-09-07T08:02:16;33.30;99.90
1976;DHT22;988;48.016;7.800;2023-09-07T08:04:41;34.40;99.90
1976;DHT22;988;48.016;7.800;2023-09-07T08:07:07;37.60;95.00
1976;DHT22;988;48.016;7.800;2023-09-07T08:09:34;36.20;87.80
1976;DHT22;988;48.016;7.800;2023-09-07T08:12:00;35.60;90.30
1976;DHT22;988;48.016;7.800;2023-09-07T08:14:28;37.00;91.70
1976;DHT22;988;48.016;7.800;2023-09-07T08:16:53;34.30;83.70
1976;DHT22;988;48.016;7.800;2023-09-07T08:19:19;34.20;94.50
1976;DHT22;988;48.016;7.800;2023-09-07T08:21:45;36.00;86.40
1976;DHT22;988;48.016;7.800;2023-09-07T08:24:11;33.70;92.20
1976;DHT22;988;48.016;7.800;2023-09-07T08:26:37;35.50;89.70
1976;DHT22;988;48.016;7.800;2023-09-07T08:29:05;38.40;93.00
1976;DHT22;988;48.016;7.800;2023-09-07T08:31:31;38.40;85.90
1976;DHT22;988;48.016;7.800;2023-09-07T08:34:00;38.60;76.00
1976;DHT22;988;48.016;7.800;2023-09-07T08:36:25;39.40;85.10
1976;DHT22;988;48.016;7.800;2023-09-07T08:38:53;40.00;85.30
1976;DHT22;988;48.016;7.800;2023-09-07T08:41:19;39.80;88.00
1976;DHT22;988;48.016;7.800;2023-09-07T08:43:45;38.00;87.40
1976;DHT22;988;48.016;7.800;2023-09-07T08:46:15;38.00;66.00
1976;DHT22;988;48.016;7.800;2023-09-07T08:48:42;38.30;65.30
1976;DHT22;988;48.016;7.800;2023-09-07T08:51:09;36.40;73.80
1976;DHT22;988;48.016;7.800;2023-09-07T08:53:37;35.10;79.30
1976;DHT22;988;48.016;7.800;2023-09-07T08:56:02;36.70;78.10
1976;DHT22;988;48.016;7.800;2023-09-07T08:58:28;35.60;82.80
1976;DHT22;988;48.016;7.800;2023-09-07T09:00:54;31.30;96.20
1976;DHT22;988;48.016;7.800;2023-09-07T09:03:23;33.40;93.20
1976;DHT22;988;48.016;7.800;2023-09-07T09:05:50;35.40;90.70
1976;DHT22;988;48.016;7.800;2023-09-07T09:08:16;37.80;82.80
1976;DHT22;988;48.016;7.800;2023-09-07T09:10:45;36.70;78.50
1976;DHT22;988;48.016;7.800;2023-09-07T09:13:11;39.40;86.30
1976;DHT22;988;48.016;7.800;2023-09-07T09:15:36;38.60;77.10
1976;DHT22;988;48.016;7.800;2023-09-07T09:18:12;39.20;80.00
1976;DHT22;988;48.016;7.800;2023-09-07T09:20:38;38.40;80.00
1976;DHT22;988;48.016;7.800;2023-09-07T09:23:04;39.60;84.30
1976;DHT22;988;48.016;7.800;2023-09-07T09:25:30;40.40;85.50
1976;DHT22;988;48.016;7.800;2023-09-07T09:27:56;36.90;91.00
1976;DHT22;988;48.016;7.800;2023-09-07T09:30:22;36.40;91.50
1976;DHT22;988;48.016;7.800;2023-09-07T09:32:48;37.40;89.20
1976;DHT22;988;48.016;7.800;2023-09-07T09:35:16;38.70;87.40
1976;DHT22;988;48.016;7.800;2023-09-07T09:37:48;40.50;80.90
1976;DHT22;988;48.016;7.800;2023-09-07T09:40:16;41.20;88.50
1976;DHT22;988;48.016;7.800;2023-09-07T09:42:44;42.40;80.60
1976;DHT22;988;48.016;7.800;2023-09-07T09:45:10;43.80;72.60
1976;DHT22;988;48.016;7.800;2023-09-07T09:47:40;43.20;77.80
1976;DHT22;988;48.016;7.800;2023-09-07T09:50:06;42.50;78.00
1976;DHT22;988;48.016;7.800;2023-09-07T09:52:33;43.20;64.90
1976;DHT22;988;48.016;7.800;2023-09-07T09:54:59;42.90;73.00
1976;DHT22;988;48.016;7.800;2023-09-07T09:57:25;41.20;72.20
1976;DHT22;988;48.016;7.800;2023-09-07T09:59:53;41.80;69.90
1976;DHT22;988;48.016;7.800;2023-09-07T10:02:19;42.70;68.20
1976;DHT22;988;48.016;7.800;2023-09-07T10:04:45;40.90;72.50
1976;DHT22;988;48.016;7.800;2023-09-07T10:07:11;40.30;70.60
1976;DHT22;988;48.016;7.800;2023-09-07T10:09:37;41.00;68.60
1976;DHT22;988;48.016;7.800;2023-09-07T10:12:03;41.30;68.90
1976;DHT22;988;48.016;7.800;2023-09-07T10:14:39;41.70;68.60
1976;DHT22;988;48.016;7.800;2023-09-07T10:17:05;40.60;66.20
1976;DHT22;988;48.016;7.800;2023-09-07T10:19:31;40.30;73.00
1976;DHT22;988;48.016;7.800;2023-09-07T10:21:56;42.20;68.00
1976;DHT22;988;48.016;7.800;2023-09-07T10:24:29;42.30;59.70
1976;DHT22;988;48.016;7.800;2023-09-07T10:27:35;42.70;56.20
1976;DHT22;988;48.016;7.800;2023-09-07T10:29:50;39.60;62.90
1976;DHT22;988;48.016;7.800;2023-09-07T10:32:16;42.00;62.00
1976;DHT22;988;48.016;7.800;2023-09-07T10:34:41;41.70;65.00
1976;DHT22;988;48.016;7.800;2023-09-07T10:37:09;40.40;66.70
1976;DHT22;988;48.016;7.800;2023-09-07T10:39:37;37.50;74.10
1976;DHT22;988;48.016;7.800;2023-09-07T10:42:04;40.40;66.90
1976;DHT22;988;48.016;7.800;2023-09-07T10:44:29;40.80;64.90
1976;DHT22;988;48.016;7.800;2023-09-07T10:46:56;41.40;64.50
1976;DHT22;988;48.016;7.800;2023-09-07T10:49:22;41.20;64.40
1976;DHT22;988;48.016;7.800;2023-09-07T10:51:47;43.10;59.60
1976;DHT22;988;48.016;7.800;2023-09-07T10:54:16;44.40;61.30
1976;DHT22;988;48.016;7.800;2023-09-07T10:56:45;43.00;52.70
1976;DHT22;988;48.016;7.800;2023-09-07T10:59:12;43.30;79.10
1976;DHT22;988;48.016;7.800;2023-09-07T11:01:38;43.30;80.80
1976;DHT22;988;48.016;7.800;2023-09-07T11:04:03;44.20;75.80
1976;DHT22;988;48.016;7.800;2023-09-07T11:06:30;42.00;79.40
1976;DHT22;988;48.016;7.800;2023-09-07T11:08:59;41.50;75.60
1976;DHT22;988;48.016;7.800;2023-09-07T11:11:24;39.50;72.90
1976;DHT22;988;48.016;7.800;2023-09-07T11:13:51;40.20;77.10
1976;DHT22;988;48.016;7.800;2023-09-07T11:16:17;41.50;69.30
1976;DHT22;988;48.016;7.800;2023-09-07T11:18:42;40.30;76.80
1976;DHT22;988;48.016;7.800;2023-09-07T11:21:08;41.40;73.50
1976;DHT22;988;48.016;7.800;2023-09-07T11:23:35;43.00;69.00
1976;DHT22;988;48.016;7.800;2023-09-07T11:26:03;45.20;62.30
1976;DHT22;988;48.016;7.800;2023-09-07T11:28:30;43.40;65.80
1976;DHT22;988;48.016;7.800;2023-09-07T11:30:56;44.40;63.10
1976;DHT22;988;48.016;7.800;2023-09-07T11:33:23;44.80;63.50
1976;DHT22;988;48.016;7.800;2023-09-07T11:35:49;43.90;64.10
1976;DHT22;988;48.016;7.800;2023-09-07T11:38:15;42.60;65.80
1976;DHT22;988;48.016;7.800;2023-09-07T11:40:41;43.80;63.20
1976;DHT22;988;48.016;7.800;2023-09-07T11:43:13;43.50;64.60
1976;DHT22;988;48.016;7.800;2023-09-07T11:45:39;44.30;61.30
1976;DHT22;988;48.016;7.800;2023-09-07T11:48:05;43.10;63.20
1976;DHT22;988;48.016;7.800;2023-09-07T11:50:30;43.10;61.80
1976;DHT22;988;48.016;7.800;2023-09-07T11:52:57;42.50;64.80
1976;DHT22;988;48.016;7.800;2023-09-07T11:55:23;40.20;69.80
1976;DHT22;988;48.016;7.800;2023-09-07T11:57:49;41.60;67.30
1976;DHT22;988;48.016;7.800;2023-09-07T12:00:14;43.50;61.40
1976;DHT22;988;48.016;7.800;2023-09-07T12:02:40;44.40;58.00
1976;DHT22;988;48.016;7.800;2023-09-07T12:05:06;43.90;59.00
1976;DHT22;988;48.016;7.800;2023-09-07T12:07:35;45.20;59.90
1976;DHT22;988;48.016;7.800;2023-09-07T12:10:01;43.00;72.30
1976;DHT22;988;48.016;7.800;2023-09-07T12:12:27;43.70;72.00
1976;DHT22;988;48.016;7.800;2023-09-07T12:14:53;43.70;62.70
1976;DHT22;988;48.016;7.800;2023-09-07T12:17:18;42.40;62.70
1976;DHT22;988;48.016;7.800;2023-09-07T12:19:45;42.60;61.90
1976;DHT22;988;48.016;7.800;2023-09-07T12:22:11;43.30;58.90
1976;DHT22;988;48.016;7.800;2023-09-07T12:24:37;43.10;59.00
1976;DHT22;988;48.016;7.800;2023-09-07T12:27:02;43.70;58.40
1976;DHT22;988;48.016;7.800;2023-09-07T12:29:28;43.70;59.70
1976;DHT22;988;48.016;7.800;2023-09-07T12:31:53;45.30;57.50
1976;DHT22;988;48.016;7.800;2023-09-07T12:34:19;44.00;59.40
1976;DHT22;988;48.016;7.800;2023-09-07T12:36:44;41.10;65.80
1976;DHT22;988;48.016;7.800;2023-09-07T12:39:09;43.00;60.90
1976;DHT22;988;48.016;7.800;2023-09-07T12:41:38;44.40;58.80
1976;DHT22;988;48.016;7.800;2023-09-07T12:44:03;44.50;58.20
1976;DHT22;988;48.016;7.800;2023-09-07T12:46:29;43.10;61.10
1976;DHT22;988;48.016;7.800;2023-09-07T12:48:54;42.00;65.60
1976;DHT22;988;48.016;7.800;2023-09-07T12:51:20;43.30;61.90
1976;DHT22;988;48.016;7.800;2023-09-07T12:53:45;42.30;70.60
1976;DHT22;988;48.016;7.800;2023-09-07T12:56:11;42.10;70.40
1976;DHT22;988;48.016;7.800;2023-09-07T12:58:37;40.70;85.00
1976;DHT22;988;48.016;7.800;2023-09-07T13:01:02;40.50;76.90
1976;DHT22;988;48.016;7.800;2023-09-07T13:03:29;41.70;68.60
1976;DHT22;988;48.016;7.800;2023-09-07T13:05:56;42.20;57.80
1976;DHT22;988;48.016;7.800;2023-09-07T13:08:21;40.00;72.60
1976;DHT22;988;48.016;7.800;2023-09-07T13:10:47;39.60;70.70
1976;DHT22;988;48.016;7.800;2023-09-07T13:13:12;40.20;77.40
1976;DHT22;988;48.016;7.800;2023-09-07T13:15:38;39.60;72.50
1976;DHT22;988;48.016;7.800;2023-09-07T13:18:03;40.20;62.90
1976;DHT22;988;48.016;7.800;2023-09-07T13:20:29;39.70;60.20
1976;DHT22;988;48.016;7.800;2023-09-07T13:22:56;38.60;63.40
1976;DHT22;988;48.016;7.800;2023-09-07T13:25:22;39.30;64.40
1976;DHT22;988;48.016;7.800;2023-09-07T13:27:47;39.70;63.30
1976;DHT22;988;48.016;7.800;2023-09-07T13:30:13;39.00;69.50
1976;DHT22;988;48.016;7.800;2023-09-07T13:32:39;38.20;75.40
1976;DHT22;988;48.016;7.800;2023-09-07T13:35:05;39.00;69.70
1976;DHT22;988;48.016;7.800;2023-09-07T13:37:31;37.10;60.30
1976;DHT22;988;48.016;7.800;2023-09-07T13:39:56;37.80;64.40
1976;DHT22;988;48.016;7.800;2023-09-07T13:42:22;38.50;62.90
1976;DHT22;988;48.016;7.800;2023-09-07T13:44:47;38.10;64.30
1976;DHT22;988;48.016;7.800;2023-09-07T13:47:14;37.40;65.60
1976;DHT22;988;48.016;7.800;2023-09-07T13:49:41;38.60;63.40
1976;DHT22;988;48.016;7.800;2023-09-07T13:52:06;38.00;60.90
1976;DHT22;988;48.016;7.800;2023-09-07T13:54:32;37.60;65.50
1976;DHT22;988;48.016;7.800;2023-09-07T13:56:57;38.20;62.10
1976;DHT22;988;48.016;7.800;2023-09-07T13:59:23;38.90;61.60
1976;DHT22;988;48.016;7.800;2023-09-07T14:01:53;37.70;64.60
1976;DHT22;988;48.016;7.800;2023-09-07T14:04:21;37.00;79.10
1976;DHT22;988;48.016;7.800;2023-09-07T14:06:47;37.00;75.60
1976;DHT22;988;48.016;7.800;2023-09-07T14:09:13;37.50;76.30
1976;DHT22;988;48.016;7.800;2023-09-07T14:11:39;36.30;85.40
1976;DHT22;988;48.016;7.800;2023-09-07T14:14:04;35.20;78.40
1976;DHT22;988;48.016;7.800;2023-09-07T14:16:31;35.20;82.00
1976;DHT22;988;48.016;7.800;2023-09-07T14:18:56;35.20;85.10
1976;DHT22;988;48.016;7.800;2023-09-07T14:21:22;35.60;81.60
1976;DHT22;988;48.016;7.800;2023-09-07T14:23:47;37.00;72.00
1976;DHT22;988;48.016;7.800;2023-09-07T14:26:13;37.10;68.70
1976;DHT22;988;48.016;7.800;2023-09-07T14:28:38;37.90;68.10
1976;DHT22;988;48.016;7.800;2023-09-07T14:31:04;37.70;70.80
1976;DHT22;988;48.016;7.800;2023-09-07T14:33:31;37.30;75.00
1976;DHT22;988;48.016;7.800;2023-09-07T14:38:24;35.50;91.80
1976;DHT22;988;48.016;7.800;2023-09-07T14:40:52;35.70;93.40
1976;DHT22;988;48.016;7.800;2023-09-07T14:43:20;34.60;81.60
1976;DHT22;988;48.016;7.800;2023-09-07T14:45:46;34.90;91.10
1976;DHT22;988;48.016;7.800;2023-09-07T14:48:11;35.10;94.60
1976;DHT22;988;48.016;7.800;2023-09-07T14:50:37;35.30;92.50
1976;DHT22;988;48.016;7.800;2023-09-07T14:53:03;35.30;91.10
1976;DHT22;988;48.016;7.800;2023-09-07T14:55:29;35.70;93.00
1976;DHT22;988;48.016;7.800;2023-09-07T14:57:54;34.90;92.00
1976;DHT22;988;48.016;7.800;2023-09-07T15:00:20;35.20;93.60
1976;DHT22;988;48.016;7.800;2023-09-07T15:02:45;34.30;92.20
1976;DHT22;988;48.016;7.800;2023-09-07T15:05:11;34.50;92.70
1976;DHT22;988;48.016;7.800;2023-09-07T15:07:36;35.00;93.60
1976;DHT22;988;48.016;7.800;2023-09-07T15:10:02;35.00;92.00
1976;DHT22;988;48.016;7.800;2023-09-07T15:12:27;34.50;93.10
1976;DHT22;988;48.016;7.800;2023-09-07T15:14:53;35.20;91.70
1976;DHT22;988;48.016;7.800;2023-09-07T15:17:18;35.20;91.90
1976;DHT22;988;48.016;7.800;2023-09-07T15:19:44;34.70;92.20
1976;DHT22;988;48.016;7.800;2023-09-07T15:22:10;34.80;91.40
1976;DHT22;988;48.016;7.800;2023-09-07T15:24:36;35.00;90.10
1976;DHT22;988;48.016;7.800;2023-09-07T15:27:08;34.80;90.00
1976;DHT22;988;48.016;7.800;2023-09-07T15:29:34;34.90;84.40
1976;DHT22;988;48.016;7.800;2023-09-07T15:31:59;34.40;86.90
1976;DHT22;988;48.016;7.800;2023-09-07T15:34:25;33.90;89.60
1976;DHT22;988;48.016;7.800;2023-09-07T15:36:50;33.50;91.90
1976;DHT22;988;48.016;7.800;2023-09-07T15:39:16;33.50;92.60
1976;DHT22;988;48.016;7.800;2023-09-07T15:41:41;32.90;91.70
1976;DHT22;988;48.016;7.800;2023-09-07T15:44:07;33.40;92.80
1976;DHT22;988;48.016;7.800;2023-09-07T15:46:32;32.90;92.20
1976;DHT22;988;48.016;7.800;2023-09-07T15:48:58;33.00;91.40
1976;DHT22;988;48.016;7.800;2023-09-07T15:51:23;33.10;91.40
1976;DHT22;988;48.016;7.800;2023-09-07T15:53:49;33.40;91.50
1976;DHT22;988;48.016;7.800;2023-09-07T15:56:14;32.70;93.80
1976;DHT22;988;48.016;7.800;2023-09-07T15:58:39;32.30;92.70
1976;DHT22;988;48.016;7.800;2023-09-07T16:01:05;32.30;93.40
1976;DHT22;988;48.016;7.800;2023-09-07T16:03:30;32.30;93.80
1976;DHT22;988;48.016;7.800;2023-09-07T16:05:56;32.50;93.10
1976;DHT22;988;48.016;7.800;2023-09-07T16:08:21;32.70;93.40
1976;DHT22;988;48.016;7.800;2023-09-07T16:10:47;32.40;93.50